S&P 500   3,841.94
DOW   31,496.30
QQQ   308.68
pixel
S&P 500   3,841.94
DOW   31,496.30
QQQ   308.68
pixel
S&P 500   3,841.94
DOW   31,496.30
QQQ   308.68
pixel
S&P 500   3,841.94
DOW   31,496.30
QQQ   308.68
pixel
Log in
NASDAQ:FWONA

Formula One Group Institutional Ownership

$38.95
-0.01 (-0.03 %)
(As of 03/5/2021 07:37 PM ET)
Add
Compare
Today's Range
$37.95
Now: $38.95
$39.71
50-Day Range
$35.53
MA: $38.73
$41.09
52-Week Range
$16.87
Now: $38.95
$42.36
Volume212,900 shs
Average Volume166,571 shs
Market Capitalization$9.03 billion
P/E RatioN/A
Dividend YieldN/A
Beta1.27

Institutional Ownership

Institutional Ownership Changes (13F Filings) for Formula One Group (NASDAQ:FWONA)

Institutional Ownership Percentage: 9.81%

Institutional Buying and Selling by Quarter


Formula One Group (NASDAQ FWONA) Institutional Buying and Selling

Reporting DateHedge FundShares HeldMarket Value% of PortfolioQuarterly Change in SharesOwnership in Company
3/1/2021UBS Asset Management Americas Inc.10,268$0.39M0.0%N/A0.004%
2/9/2021Bank of New York Mellon Corp78,533$2.98M0.0%+2.0%0.034%
2/8/2021New York State Common Retirement Fund32,300$1.23M0.0%-8.5%0.014%
2/5/2021Gamco Investors INC. ET AL75,110$2.85M0.0%-2.7%0.032%
2/5/2021Gabelli Funds LLC141,183$5.36M0.0%-15.0%0.061%
1/29/2021Royal London Asset Management Ltd.798$30K0.0%N/A0.000%
1/25/2021Strs Ohio33,548$1.27M0.0%+4.8%0.014%
1/19/2021FNY Investment Advisers LLC1,400$53K0.0%+180.0%0.001%
12/14/2020Strs Ohio32,026$1.07M0.0%+21.3%0.014%
11/17/2020California State Teachers Retirement System63,223$2.12M0.0%+1.1%0.027%
11/6/2020Gamco Investors INC. ET AL77,167$2.59M0.0%-2.8%0.033%
11/6/2020Gabelli Funds LLC166,051$5.56M0.0%-8.3%0.072%
10/30/2020Kornitzer Capital Management Inc. KS22,329$0.75M0.0%-1.7%0.010%
10/9/2020Capstone Financial Group Inc.1,784$62K0.0%-54.0%0.001%
9/4/2020Principal Financial Group Inc.679,617$19.83M0.0%+0.2%0.293%
8/20/2020Charles Schwab Investment Management Inc.126,836$3.70M0.0%-1.8%0.055%
8/17/2020California State Teachers Retirement System62,558$1.83M0.0%+2.3%0.027%
8/17/2020Jacobs Levy Equity Management Inc.12,470$0.36M0.0%-3.9%0.005%
8/17/2020Jane Street Group LLC18,532$0.54M0.0%N/A0.008%
8/17/2020Public Employees Retirement System of Ohio9,652$0.28M0.0%-3.6%0.004%
8/14/2020Verition Fund Management LLC25,400$0.74M0.0%N/A0.011%
8/14/2020Bank of America Corp DE83,924$2.45M0.0%-8.0%0.036%
8/14/2020Vanguard Group Inc.2,455,223$71.64M0.0%-1.3%1.060%
8/13/2020Pecaut & CO.83,557$2.44M1.9%-8.5%0.036%
8/13/2020Gabelli Funds LLC181,051$5.28M0.0%-8.3%0.078%
8/13/2020Gamco Investors INC. ET AL79,419$2.32M0.0%-15.1%0.034%
8/13/2020FMR LLC767,784$22.40M0.0%-30.4%0.331%
8/13/2020FIL Ltd40,358$1.18M0.0%+2,218.1%0.017%
8/13/2020Federated Hermes Inc.24,258$0.71M0.0%-19.6%0.010%
8/13/2020Athanor Capital LP12,371$0.36M0.0%N/A0.005%
8/12/2020Bank of New York Mellon Corp80,395$2.35M0.0%-4.3%0.035%
8/12/2020State of Wisconsin Investment Board733,106$21.39M0.1%+36.1%0.316%
8/12/2020California Public Employees Retirement System56,542$1.65M0.0%+0.7%0.024%
8/10/2020Kontiki Capital Management HK Ltd.571,515$16.68M2.5%+3.8%0.247%
8/10/2020Wittenberg Investment Management Inc.8,814$0.26M0.1%-81.5%0.004%
8/7/2020State Board of Administration of Florida Retirement System47,341$1.38M0.0%+1.4%0.020%
8/7/2020New York State Common Retirement Fund35,300$1.03M0.0%-16.5%0.015%
8/6/2020Bislett Management LLC143,457$4.19M2.9%-15.6%0.062%
8/5/2020Principal Financial Group Inc.679,617$19.83M0.0%+0.2%0.293%
8/5/2020RMB Capital Management LLC100,702$2.94M0.1%-2.3%0.043%
8/5/2020Russell Investments Group Ltd.19,113$0.56M0.0%+333.9%0.008%
8/5/2020Hosking Partners LLP38,785$1.13M0.0%-6.3%0.017%
8/3/2020Kornitzer Capital Management Inc. KS22,723$0.66M0.0%-1.9%0.010%
7/31/2020UBS Group AG255,449$7.45M0.0%+58.7%0.110%
7/28/2020Raymond James & Associates216,066$6.31M0.0%+4.6%0.093%
7/27/2020Red Cedar Capital LLC43,079$1.26M1.1%-1.0%0.019%
7/27/2020MAI Capital Management7,783$0.23M0.0%N/A0.003%
7/23/2020Strs Ohio26,411$0.77M0.0%-30.8%0.011%
7/20/2020SG Americas Securities LLC138,755$4.05M0.0%+34.2%0.060%
7/14/2020Capstone Financial Group Inc.3,875$0.12M0.1%N/A0.002%
7/13/2020Simplex Trading LLC2,240$65K0.0%N/A0.001%
7/10/2020Eidelman Virant Capital77,650$2.27M1.6%-38.9%0.034%
6/19/2020State Street Corp295,443$7.63M0.0%+1.9%0.128%
6/16/2020Royal Bank of Canada20,755$0.54M0.0%-2.6%0.009%
6/11/2020Pathstone Family Office LLC2,391$61K0.0%-12.0%0.001%
5/23/2020The Manufacturers Life Insurance Company937,363$24.20M0.0%+41.7%0.405%
5/22/2020FDx Advisors Inc.21,999$0.91M0.0%N/A0.009%
5/22/2020Clearbridge Investments LLC819,216$21.15M0.0%-3.0%0.354%
5/18/2020Southeastern Asset Management Inc. TN2,438,674$62.97M1.5%+4.1%1.052%
5/15/2020Morgan Stanley18,935$0.49M0.0%+5.0%0.008%
5/14/2020Gabelli Funds LLC197,331$5.10M0.0%-5.9%0.085%
5/14/2020Wells Fargo & Company MN281,225$7.26M0.0%+25.4%0.121%
5/14/2020Gamco Investors INC. ET AL93,491$2.41M0.0%-3.0%0.040%
5/14/2020Geode Capital Management LLC334,652$8.64M0.0%+15.7%0.144%
5/14/2020Legal & General Group Plc14,272$0.37M0.0%-35.7%0.006%
5/14/2020Deutsche Bank AG258,713$6.68M0.0%-15.9%0.112%
5/14/2020Alliancebernstein L.P.15,852$0.41M0.0%-2.9%0.007%
5/14/2020Nuveen Asset Management LLC112,510$2.91M0.0%+37.8%0.049%
5/13/2020FDx Advisors Inc.21,999$0.91M0.1%N/A0.009%
5/13/2020Parametric Portfolio Associates LLC34,321$0.89M0.0%-9.8%0.015%
5/13/2020Treasurer of the State of North Carolina10,263$0.27M0.0%+71.2%0.004%
5/13/2020BNP Paribas Arbitrage SA97,013$2.51M0.0%-98.9%0.042%
5/13/2020Horizon Kinetics Asset Management LLC206,408$5.33M0.2%-10.5%0.089%
5/13/2020Federated Hermes Inc.30,158$0.78M0.0%+33.8%0.013%
5/13/2020Fairview Capital Investment Management LLC1,086,100$28.04M1.7%-1.4%0.469%
5/12/2020Pecaut & CO.91,307$2.36M2.1%-3.5%0.039%
5/12/2020Citigroup Inc.11,895$0.31M0.0%-15.0%0.005%
5/12/2020Principal Financial Group Inc.678,514$17.52M0.0%+0.4%0.293%
5/12/2020Victory Capital Management Inc.31,701$0.82M0.0%-4.2%0.014%
5/12/2020Bislett Management LLC170,000$4.39M3.5%+13.3%0.073%
5/12/2020JPMorgan Chase & Co.248,279$6.41M0.0%-14.4%0.107%
5/11/2020First Foundation Advisors112,938$2.92M0.2%+0.7%0.049%
5/11/2020Roundview Capital LLC21,985$0.57M0.1%+4.9%0.009%
5/11/2020State Street Corp295,443$7.63M0.0%+1.9%0.128%
5/11/2020RMB Capital Management LLC103,050$2.66M0.1%N/A0.044%
5/8/2020Aigen Investment Management LP4,180$0.11M0.0%N/A0.002%
5/6/2020Russell Investments Group Ltd.4,405$0.11M0.0%+91.5%0.002%
5/6/2020Bank of New York Mellon Corp84,026$2.17M0.0%+1.9%0.036%
5/6/2020Rhumbline Advisers33,832$0.87M0.0%+18.1%0.015%
5/6/2020Eidelman Virant Capital127,150$3.28M3.4%-34.8%0.055%
5/5/2020Mad River Investors15,272$0.39M0.6%-3.4%0.007%
5/4/2020Victory Capital Management Inc.31,701$0.82M0.0%-4.2%0.014%
5/2/2020SG Americas Securities LLC103,369$2.67M0.0%N/A0.045%
5/1/2020BlackRock Inc.1,036,401$26.76M0.0%-4.8%0.447%
5/1/2020UBS Group AG160,992$4.16M0.0%-24.6%0.069%
4/30/2020Kornitzer Capital Management Inc. KS23,163$0.60M0.0%-1.9%0.010%
4/23/2020Strs Ohio38,159$0.99M0.0%+55.9%0.016%
4/23/2020Signaturefd LLC1,044$27K0.0%+399.5%0.000%
4/23/2020Marks Group Wealth Management Inc34,771$0.91M0.2%+161.5%0.015%
4/22/2020Ingalls & Snyder LLC20,686$0.53M0.0%+14.4%0.009%
(Data available from 1/1/2016 forward)

This page was last updated on 3/8/2021 by MarketBeat.com Staff

Enter your email address below to receive a concise daily summary of analysts' upgrades, downgrades and new coverage with MarketBeat.com's FREE daily email newsletter.